Time;durP1;ratioP1;P1;durP2;ratioP2;P2;SDS_P1;SDS_P2;PMS_P1;PMS_P2;Temp;Humidity;BMP_temperature;BMP_pressure;BME280_temperature;BME280_humidity;BME280_pressure;Samples;Min_cycle;Max_cycle;Signal;HPM_P1;HPM_P2
2022/12/29 00:02:04;;;;;;;7.93;2.37;;;7.40;75.30;7.20;96195.00;;;;5053734;28;20220;-86
2022/12/29 00:04:32;;;;;;;4.57;1.70;;;7.50;75.20;7.20;96188.00;;;;5055493;28;20220;-86
2022/12/29 00:06:59;;;;;;;5.07;2.07;;;7.40;75.30;7.20;96179.00;;;;5054654;28;20210;-86
2022/12/29 00:09:27;;;;;;;1.63;1.53;;;7.40;75.30;7.20;96183.00;;;;5055170;28;20225;-86
2022/12/29 00:11:55;;;;;;;1.43;1.33;;;7.40;75.20;7.20;96171.00;;;;5055819;28;20205;-84
2022/12/29 00:17:07;;;;;;;2.40;1.53;;;7.40;75.20;7.20;96168.00;;;;5056651;28;20697;-85
2022/12/29 00:36:18;;;;;;;1.90;1.27;;;7.50;75.70;7.40;96168.00;;;;5057053;28;20196;-86
2022/12/29 00:44:22;;;;;;;9.47;1.60;;;7.50;75.80;7.50;96171.00;;;;5056974;28;20258;-86
2022/12/29 00:46:49;;;;;;;8.23;1.40;;;7.60;76.00;7.50;96170.00;;;;5057276;28;20204;-86
2022/12/29 00:49:31;;;;;;;9.53;1.80;;;7.60;76.10;7.60;96177.00;;;;5059501;28;20286;-86
2022/12/29 00:52:02;;;;;;;1.13;1.03;;;7.60;76.10;7.60;96173.00;;;;5058292;28;20556;-86
2022/12/29 00:54:31;;;;;;;0.80;0.80;;;7.70;77.00;7.60;96162.00;;;;5057263;28;20234;-85
2022/12/29 00:56:58;;;;;;;0.80;0.80;;;7.70;75.90;7.60;96164.00;;;;5057164;28;20330;-86
2022/12/29 00:59:27;;;;;;;0.97;0.97;;;7.70;75.60;7.60;96179.00;;;;5056584;28;20307;-86
2022/12/29 01:01:55;;;;;;;0.80;0.80;;;7.80;75.50;7.70;96174.00;;;;5057754;28;21411;-86
2022/12/29 01:04:26;;;;;;;1.00;0.90;;;7.80;75.50;7.70;96163.00;;;;5057812;28;20307;-85
2022/12/29 01:06:53;;;;;;;1.10;0.90;;;7.80;75.30;7.70;96179.00;;;;5058148;28;20197;-86
2022/12/29 01:12:07;;;;;;;0.97;0.60;;;7.80;75.20;7.70;96172.00;;;;5058972;28;20682;-86
2022/12/29 01:14:37;;;;;;;5.50;1.60;;;7.90;74.90;7.70;96175.00;;;;5056335;28;20234;-86
2022/12/29 01:17:05;;;;;;;0.90;0.80;;;7.90;74.80;7.70;96176.00;;;;5058682;28;20810;-86
2022/12/29 01:19:33;;;;;;;7.03;1.50;;;7.90;74.80;7.70;96166.00;;;;5057166;28;20817;-86
2022/12/29 01:22:00;;;;;;;2.90;0.80;;;7.90;74.60;7.70;96169.00;;;;5058702;28;20220;-86
2022/12/29 01:24:27;;;;;;;1.63;0.70;;;7.90;74.40;7.70;96180.00;;;;5057626;28;20764;-86
2022/12/29 01:26:55;;;;;;;8.13;0.90;;;7.90;74.30;7.70;96172.00;;;;5056725;28;21246;-86
2022/12/29 01:29:22;;;;;;;1.13;0.80;;;7.90;74.20;7.70;96176.00;;;;5057450;28;20197;-85
2022/12/29 01:31:51;;;;;;;1.17;0.80;;;7.90;74.20;7.60;96184.00;;;;5057118;28;20208;-86
2022/12/29 01:34:18;;;;;;;0.83;0.70;;;7.80;74.00;7.60;96176.00;;;;5058072;28;20691;-86
2022/12/29 01:36:45;;;;;;;4.67;0.90;;;7.80;74.10;7.60;96171.00;;;;5056864;28;20603;-86
2022/12/29 01:39:13;;;;;;;1.97;0.90;;;7.80;74.00;7.60;96164.00;;;;5058024;28;20281;-86
2022/12/29 01:41:40;;;;;;;0.83;0.80;;;7.80;74.00;7.60;96163.00;;;;5056360;28;20239;-86
2022/12/29 01:44:51;;;;;;;1.60;0.90;;;7.80;74.20;7.60;96173.00;;;;5057600;28;20731;-86
2022/12/29 01:47:30;;;;;;;2.23;0.70;;;7.80;74.10;7.60;96167.00;;;;5056200;28;20195;-86
2022/12/29 01:50:02;;;;;;;2.00;0.70;;;7.80;74.40;7.60;96162.00;;;;5056121;28;20296;-86
2022/12/29 01:52:34;;;;;;;0.70;0.70;;;7.80;74.50;7.60;96161.00;;;;5057249;28;20685;-86
2022/12/29 01:55:05;;;;;;;2.47;0.90;;;7.80;74.20;7.60;96163.00;;;;5057844;28;20231;-86
2022/12/29 01:57:37;;;;;;;0.83;0.70;;;7.80;74.30;7.60;96172.00;;;;5057303;28;20204;-86
2022/12/29 02:00:09;;;;;;;0.60;0.60;;;7.80;74.40;7.70;96157.00;;;;5056776;28;20250;-86
2022/12/29 02:02:39;;;;;;;6.07;1.20;;;7.80;74.40;7.70;96157.00;;;;5056067;28;20220;-86
2022/12/29 02:05:15;;;;;;;2.30;0.80;;;7.80;74.40;7.70;96152.00;;;;5057416;28;20717;-86
2022/12/29 02:07:44;;;;;;;0.90;0.70;;;7.80;74.40;7.70;96139.00;;;;5054221;28;20191;-86
2022/12/29 02:10:11;;;;;;;10.23;1.60;;;7.80;74.40;7.70;96140.00;;;;5055417;28;20231;-86
2022/12/29 02:12:38;;;;;;;1.10;1.00;;;7.80;74.20;7.70;96138.00;;;;5052657;28;20299;-86
2022/12/29 02:15:07;;;;;;;6.30;0.70;;;7.90;74.50;7.70;96145.00;;;;5052770;28;20306;-86
2022/12/29 02:17:54;;;;;;;2.10;0.70;;;7.90;74.50;7.70;96156.00;;;;5054113;28;20232;-86
2022/12/29 02:21:12;;;;;;;2.50;0.70;;;7.90;74.60;7.70;96146.00;;;;5056692;28;20204;-86
2022/12/29 02:24:31;;;;;;;2.13;1.03;;;7.90;74.20;7.70;96150.00;;;;5054735;28;20224;-86
2022/12/29 02:27:44;;;;;;;1.00;0.60;;;7.90;74.40;7.70;96151.00;;;;5056746;28;20200;-85
2022/12/29 02:30:43;;;;;;;2.00;0.60;;;7.90;74.30;7.70;96148.00;;;;5056284;28;20286;-86
2022/12/29 02:33:24;;;;;;;0.80;0.80;;;7.90;74.40;7.80;96145.00;;;;5055566;28;20255;-86
2022/12/29 02:36:08;;;;;;;0.50;0.50;;;7.90;74.50;7.80;96138.00;;;;5055705;28;20282;-86
2022/12/29 02:38:53;;;;;;;9.23;1.20;;;7.90;74.30;7.80;96147.00;;;;5057789;28;20203;-86
2022/12/29 02:41:29;;;;;;;1.27;0.67;;;7.90;74.30;7.80;96143.00;;;;5056586;28;20324;-86
2022/12/29 02:44:07;;;;;;;5.07;0.97;;;7.90;75.10;7.80;96144.00;;;;5056246;28;20603;-86
2022/12/29 02:46:44;;;;;;;2.63;0.73;;;8.00;74.30;7.80;96148.00;;;;5056807;28;20279;-86
2022/12/29 02:49:20;;;;;;;0.40;0.40;;;8.00;74.30;7.90;96136.00;;;;5056246;28;20349;-86
2022/12/29 02:51:58;;;;;;;1.80;0.50;;;8.00;74.20;7.90;96136.00;;;;5055800;28;20207;-86
2022/12/29 02:54:43;;;;;;;1.03;0.50;;;8.00;74.00;7.90;96146.00;;;;5054864;28;20310;-86
2022/12/29 02:57:15;;;;;;;0.50;0.50;;;8.00;74.10;8.00;96143.00;;;;5056130;28;20208;-86
2022/12/29 02:59:44;;;;;;;0.63;0.60;;;8.10;74.00;8.00;96143.00;;;;5056576;28;20211;-86
2022/12/29 03:02:40;;;;;;;0.60;0.60;;;8.10;73.90;8.10;96135.00;;;;5055003;28;21001;-86
2022/12/29 03:05:28;;;;;;;1.73;0.50;;;8.20;73.50;8.10;96129.00;;;;5054740;28;20283;-86
2022/12/29 03:08:06;;;;;;;2.50;0.50;;;8.20;73.70;8.20;96134.00;;;;5054689;28;20189;-86
2022/12/29 03:10:46;;;;;;;0.70;0.63;;;8.30;74.20;8.30;96118.00;;;;5056395;28;21112;-86
2022/12/29 03:16:22;;;;;;;0.53;0.53;;;8.40;74.10;8.40;96119.00;;;;5055008;28;20339;-86
2022/12/29 03:18:59;;;;;;;5.80;0.60;;;8.40;74.10;8.40;96124.00;;;;5055816;28;20586;-86
2022/12/29 03:24:27;;;;;;;1.53;0.50;;;8.50;74.10;8.60;96117.00;;;;5056297;28;20615;-86
2022/12/29 03:26:58;;;;;;;1.93;0.53;;;8.60;73.90;8.60;96116.00;;;;5055886;28;20214;-86
2022/12/29 03:29:30;;;;;;;1.00;0.50;;;8.60;73.80;8.60;96116.00;;;;5055252;28;20232;-86
2022/12/29 03:32:00;;;;;;;1.00;0.70;;;8.70;74.00;8.70;96108.00;;;;5054846;28;20557;-86
2022/12/29 03:34:30;;;;;;;1.80;0.50;;;8.70;73.90;8.70;96114.00;;;;5054921;28;20223;-86
2022/12/29 03:37:05;;;;;;;0.43;0.43;;;8.70;73.60;8.80;96111.00;;;;5055517;28;20327;-86
2022/12/29 03:39:33;;;;;;;0.70;0.50;;;8.80;73.30;8.80;96113.00;;;;5055843;28;20207;-86
2022/12/29 03:42:06;;;;;;;1.37;0.70;;;8.80;73.30;8.90;96109.00;;;;5054313;28;20789;-86
2022/12/29 03:44:37;;;;;;;1.57;0.60;;;8.90;73.50;8.90;96107.00;;;;5055446;28;20323;-86
2022/12/29 03:47:04;;;;;;;1.30;0.60;;;8.90;73.40;9.00;96105.00;;;;5055319;28;20204;-86
2022/12/29 03:49:33;;;;;;;1.07;0.80;;;9.00;73.20;9.00;96104.00;;;;5055101;28;20295;-86
2022/12/29 03:52:00;;;;;;;1.00;0.80;;;9.00;73.00;9.10;96103.00;;;;5054411;28;20747;-86
2022/12/29 03:54:27;;;;;;;0.63;0.60;;;9.10;73.00;9.10;96110.00;;;;5054579;28;20248;-86
2022/12/29 03:56:54;;;;;;;0.73;0.73;;;9.10;72.80;9.20;96116.00;;;;5054508;28;20211;-86
2022/12/29 03:59:22;;;;;;;0.70;0.70;;;9.20;72.70;9.20;96112.00;;;;5056027;28;20290;-86
2022/12/29 04:01:49;;;;;;;3.03;0.50;;;9.20;72.70;9.30;96115.00;;;;5053335;28;20292;-86
2022/12/29 04:04:16;;;;;;;0.50;0.50;;;9.20;72.90;9.30;96115.00;;;;5054301;28;20243;-86
2022/12/29 04:06:45;;;;;;;0.50;0.37;;;9.30;72.60;9.30;96115.00;;;;5056653;28;20196;-86
2022/12/29 04:09:12;;;;;;;0.40;0.40;;;9.30;72.20;9.40;96115.00;;;;5057066;28;20211;-86
2022/12/29 04:11:39;;;;;;;3.13;0.70;;;9.40;72.30;9.40;96118.00;;;;5059110;28;20294;-86
2022/12/29 04:14:09;;;;;;;0.30;0.30;;;9.40;72.20;9.50;96112.00;;;;5059576;28;20230;-85
2022/12/29 04:16:38;;;;;;;8.57;0.70;;;9.40;72.40;9.50;96111.00;;;;5057565;28;20288;-86
2022/12/29 04:19:06;;;;;;;0.40;0.30;;;9.40;72.40;9.50;96106.00;;;;5059412;28;20202;-85
2022/12/29 04:21:33;;;;;;;0.37;0.33;;;9.50;72.30;9.60;96115.00;;;;5059012;28;20255;-86
2022/12/29 04:24:01;;;;;;;3.33;0.50;;;9.50;72.00;9.60;96123.00;;;;5059957;28;20255;-86
2022/12/29 04:26:28;;;;;;;1.40;0.40;;;9.60;71.90;9.70;96112.00;;;;5055811;28;20295;-86
2022/12/29 04:28:55;;;;;;;0.80;0.40;;;9.60;72.00;9.70;96116.00;;;;5059348;28;20203;-85
2022/12/29 04:31:22;;;;;;;0.40;0.40;;;9.70;72.00;9.70;96109.00;;;;5056740;28;20258;-86
2022/12/29 04:33:50;;;;;;;0.43;0.43;;;9.70;71.70;9.80;96103.00;;;;5059675;28;20236;-86
2022/12/29 04:36:17;;;;;;;1.40;0.70;;;9.70;71.30;9.80;96103.00;;;;5057547;28;20291;-86
2022/12/29 04:38:44;;;;;;;0.60;0.40;;;9.80;71.30;9.80;96098.00;;;;5059041;28;20676;-86
2022/12/29 04:41:12;;;;;;;4.13;0.80;;;9.80;71.70;9.90;96102.00;;;;5058134;28;20696;-86
2022/12/29 04:43:40;;;;;;;0.20;0.20;;;9.80;71.60;9.90;96100.00;;;;5057603;28;20788;-86
2022/12/29 04:46:07;;;;;;;0.30;0.30;;;9.80;71.40;9.90;96091.00;;;;5058748;28;20207;-86
2022/12/29 04:48:34;;;;;;;0.77;0.20;;;9.90;71.10;9.90;96093.00;;;;5059587;28;20293;-86
2022/12/29 04:51:01;;;;;;;0.30;0.30;;;9.90;70.90;10.00;96084.00;;;;5057352;28;20280;-86
2022/12/29 04:53:28;;;;;;;2.90;0.60;;;9.90;70.50;10.00;96090.00;;;;5058874;28;20318;-86
2022/12/29 04:55:56;;;;;;;0.37;0.30;;;10.00;70.40;10.00;96087.00;;;;5058278;28;20975;-86
2022/12/29 04:58:25;;;;;;;1.20;0.40;;;10.00;70.50;10.00;96092.00;;;;5059565;28;20236;-86
2022/12/29 05:00:52;;;;;;;2.77;0.40;;;10.00;70.40;10.10;96089.00;;;;5053753;28;20232;-86
2022/12/29 05:03:20;;;;;;;0.97;0.40;;;10.10;70.50;10.10;96100.00;;;;5056404;28;20340;-86
2022/12/29 05:05:47;;;;;;;0.47;0.40;;;10.10;70.30;10.10;96097.00;;;;5059197;28;20264;-86
2022/12/29 05:08:14;;;;;;;0.80;0.47;;;10.10;70.20;10.20;96099.00;;;;5058801;28;20569;-86
2022/12/29 05:10:44;;;;;;;1.33;0.63;;;10.20;69.80;10.20;96107.00;;;;5057554;28;20547;-86
2022/12/29 05:13:11;;;;;;;0.40;0.40;;;10.20;69.70;10.20;96097.00;;;;5057869;28;20678;-86
2022/12/29 05:15:40;;;;;;;2.07;0.40;;;10.10;69.60;10.30;96098.00;;;;5058775;28;20231;-86
2022/12/29 05:18:07;;;;;;;2.43;0.43;;;10.20;69.50;10.30;96102.00;;;;5057501;28;20214;-86
2022/12/29 05:20:34;;;;;;;2.40;0.50;;;10.30;69.90;10.40;96115.00;;;;5059981;28;20291;-86
2022/12/29 05:23:01;;;;;;;0.30;0.30;;;10.30;69.60;10.40;96110.00;;;;5057991;28;20243;-86
2022/12/29 05:25:28;;;;;;;0.60;0.40;;;10.30;69.50;10.40;96104.00;;;;5058664;28;20286;-86
2022/12/29 05:27:55;;;;;;;0.40;0.40;;;10.40;69.70;10.40;96101.00;;;;5059000;28;20290;-86
2022/12/29 05:30:22;;;;;;;0.93;0.30;;;10.40;69.50;10.50;96103.00;;;;5056183;28;20580;-86
2022/12/29 05:32:51;;;;;;;0.53;0.53;;;10.40;69.30;10.50;96105.00;;;;5057868;28;20279;-86
2022/12/29 05:35:18;;;;;;;1.13;0.40;;;10.50;69.00;10.50;96102.00;;;;5057746;28;20228;-86
2022/12/29 05:37:45;;;;;;;0.33;0.33;;;10.50;68.90;10.50;96108.00;;;;5057852;28;20236;-86
2022/12/29 05:40:12;;;;;;;0.60;0.60;;;10.50;68.70;10.60;96097.00;;;;5057690;28;20214;-86
2022/12/29 05:42:40;;;;;;;7.60;0.83;;;10.50;68.70;10.60;96093.00;;;;5055085;28;20283;-86
2022/12/29 05:45:09;;;;;;;0.40;0.23;;;10.60;69.00;10.70;96099.00;;;;5057273;28;20298;-86
2022/12/29 05:47:36;;;;;;;0.33;0.33;;;10.60;69.00;10.70;96099.00;;;;5057898;28;20253;-86
2022/12/29 05:50:06;;;;;;;0.50;0.50;;;10.60;68.70;10.70;96105.00;;;;5058830;28;20283;-86
2022/12/29 05:52:33;;;;;;;0.90;0.30;;;10.60;68.30;10.70;96096.00;;;;5056909;28;20287;-86
2022/12/29 05:55:00;;;;;;;2.33;0.50;;;10.70;68.60;10.80;96096.00;;;;5057027;28;20235;-86
2022/12/29 05:57:27;;;;;;;0.30;0.30;;;10.70;68.60;10.80;96094.00;;;;5057603;28;20192;-86
2022/12/29 05:59:54;;;;;;;0.53;0.47;;;10.70;68.80;10.80;96096.00;;;;5057402;28;20292;-86
2022/12/29 06:02:21;;;;;;;0.40;0.40;;;10.70;68.60;10.80;96094.00;;;;5055955;28;20285;-86
2022/12/29 06:04:48;;;;;;;0.83;0.50;;;10.80;68.70;10.90;96099.00;;;;5056967;28;20320;-86
2022/12/29 06:07:17;;;;;;;0.47;0.40;;;10.80;68.20;10.90;96104.00;;;;5057557;28;20288;-86
2022/12/29 06:09:44;;;;;;;2.87;0.50;;;10.70;67.90;10.90;96105.00;;;;5057334;28;20208;-86
2022/12/29 06:12:11;;;;;;;0.40;0.40;;;10.80;68.20;10.90;96101.00;;;;5058839;28;20214;-86
2022/12/29 06:14:38;;;;;;;0.40;0.30;;;10.80;68.20;10.90;96099.00;;;;5056247;28;20235;-86
2022/12/29 06:17:05;;;;;;;3.73;0.97;;;10.80;68.10;10.90;96097.00;;;;5056970;28;20210;-86
2022/12/29 06:19:32;;;;;;;0.80;0.50;;;10.90;68.30;10.90;96094.00;;;;5058376;28;20261;-86
2022/12/29 06:21:59;;;;;;;1.50;0.30;;;10.90;68.40;10.90;96093.00;;;;5057269;28;20204;-86
2022/12/29 06:24:27;;;;;;;1.07;0.43;;;10.90;68.00;11.00;96096.00;;;;5056687;28;20238;-86
2022/12/29 06:26:55;;;;;;;8.03;0.97;;;10.90;67.90;10.90;96094.00;;;;5058349;28;20208;-86
2022/12/29 06:29:22;;;;;;;1.23;0.40;;;10.90;68.40;10.90;96106.00;;;;5057330;28;20222;-86
2022/12/29 06:31:50;;;;;;;1.93;0.70;;;10.90;68.70;10.90;96099.00;;;;5056966;28;20299;-86
2022/12/29 06:34:18;;;;;;;0.50;0.40;;;10.90;68.70;10.90;96105.00;;;;5057238;28;20227;-86
2022/12/29 06:36:45;;;;;;;2.73;0.60;;;10.90;68.60;10.90;96109.00;;;;5058633;28;20687;-86
2022/12/29 06:39:12;;;;;;;1.17;0.40;;;10.90;68.40;10.90;96113.00;;;;5056804;28;20206;-86
2022/12/29 06:41:41;;;;;;;5.63;0.53;;;10.90;68.30;10.90;96106.00;;;;5056931;28;20207;-86
2022/12/29 06:44:08;;;;;;;0.40;0.40;;;10.90;67.90;11.00;96108.00;;;;5056331;28;20762;-86
2022/12/29 06:46:35;;;;;;;0.20;0.20;;;10.90;67.90;11.00;96108.00;;;;5057274;28;20211;-86
2022/12/29 06:49:02;;;;;;;0.40;0.40;;;10.90;67.70;11.00;96115.00;;;;5053649;28;20289;-86
2022/12/29 06:51:29;;;;;;;0.80;0.60;;;11.00;67.60;11.00;96112.00;;;;5056100;28;20212;-86
2022/12/29 06:53:56;;;;;;;0.40;0.40;;;11.00;67.60;11.00;96108.00;;;;5053879;28;20961;-86
2022/12/29 06:56:24;;;;;;;0.70;0.40;;;11.00;67.40;11.00;96115.00;;;;5056303;28;20199;-86
2022/12/29 06:58:52;;;;;;;2.27;0.80;;;11.00;67.10;11.00;96109.00;;;;5056072;28;20303;-86
2022/12/29 07:01:20;;;;;;;0.63;0.40;;;11.00;67.20;11.00;96111.00;;;;5054967;28;20267;-86
2022/12/29 07:03:47;;;;;;;0.67;0.40;;;11.00;67.40;11.10;96115.00;;;;5056198;28;20259;-86
2022/12/29 07:06:14;;;;;;;0.30;0.30;;;11.00;67.50;11.10;96117.00;;;;5053912;28;20231;-86
2022/12/29 07:08:41;;;;;;;0.50;0.40;;;11.00;67.30;11.10;96122.00;;;;5055373;28;20283;-86
2022/12/29 07:11:08;;;;;;;0.60;0.60;;;11.00;67.00;11.10;96122.00;;;;5056803;28;20303;-86
2022/12/29 07:13:35;;;;;;;0.50;0.50;;;11.10;66.80;11.10;96132.00;;;;5056427;28;20226;-86
2022/12/29 07:16:08;;;;;;;0.80;0.60;;;11.10;66.60;11.20;96140.00;;;;5056276;28;20712;-86
2022/12/29 07:18:36;;;;;;;0.50;0.40;;;11.10;66.10;11.20;96134.00;;;;5054261;28;20291;-86
2022/12/29 07:21:04;;;;;;;1.20;0.50;;;11.10;66.60;11.20;96140.00;;;;5055223;28;20762;-86
2022/12/29 07:23:31;;;;;;;0.70;0.70;;;11.10;66.70;11.20;96146.00;;;;5056109;28;20232;-86
2022/12/29 07:26:02;;;;;;;0.50;0.50;;;11.20;66.70;11.30;96142.00;;;;5056403;28;20287;-86
2022/12/29 07:28:30;;;;;;;0.60;0.60;;;11.20;66.60;11.30;96139.00;;;;5056099;28;20220;-86
2022/12/29 07:30:57;;;;;;;6.60;1.10;;;11.20;66.80;11.30;96147.00;;;;5057620;28;20291;-88
2022/12/29 07:33:26;;;;;;;1.90;0.60;;;11.20;67.10;11.30;96148.00;;;;5060304;28;20212;-89
2022/12/29 07:35:53;;;;;;;0.90;0.70;;;11.20;67.40;11.40;96159.00;;;;5061408;28;20299;-89
2022/12/29 07:38:20;;;;;;;0.50;0.40;;;11.30;67.20;11.40;96158.00;;;;5058240;28;20279;-89
2022/12/29 07:40:47;;;;;;;0.73;0.57;;;11.30;67.30;11.50;96163.00;;;;5058233;28;20204;-89
2022/12/29 07:43:14;;;;;;;0.60;0.40;;;11.30;67.30;11.50;96165.00;;;;5064725;28;20251;-90
2022/12/29 07:45:41;;;;;;;0.40;0.30;;;11.30;67.00;11.50;96159.00;;;;5062420;28;20316;-89
2022/12/29 07:48:09;;;;;;;1.23;0.50;;;11.40;67.00;11.60;96167.00;;;;5059303;28;20196;-88
2022/12/29 07:50:38;;;;;;;0.90;0.70;;;11.40;67.30;11.60;96154.00;;;;5057614;28;20222;-88
2022/12/29 07:53:05;;;;;;;0.67;0.50;;;11.40;67.00;11.60;96144.00;;;;5056863;28;20651;-89
2022/12/29 07:55:32;;;;;;;0.60;0.50;;;11.40;67.00;11.60;96132.00;;;;5058396;28;20287;-88
2022/12/29 07:57:59;;;;;;;2.23;0.90;;;11.40;66.60;11.70;96132.00;;;;5061688;28;20199;-88
2022/12/29 08:00:27;;;;;;;0.83;0.83;;;11.50;66.30;11.70;96147.00;;;;5057927;28;20232;-88
2022/12/29 08:02:54;;;;;;;2.20;0.60;;;11.50;66.10;11.70;96151.00;;;;5057088;28;20236;-88
2022/12/29 08:05:21;;;;;;;1.90;0.60;;;11.40;66.00;11.70;96153.00;;;;5056758;28;20311;-89
2022/12/29 08:07:50;;;;;;;0.73;0.50;;;11.50;66.40;11.70;96163.00;;;;5059211;28;20720;-89
2022/12/29 08:10:17;;;;;;;4.50;1.20;;;11.50;66.20;11.70;96172.00;;;;5061358;28;20216;-88
2022/12/29 08:12:45;;;;;;;0.87;0.50;;;11.50;66.30;11.70;96167.00;;;;5062250;28;20299;-89
2022/12/29 08:15:13;;;;;;;0.93;0.60;;;11.50;66.70;11.70;96151.00;;;;5058938;28;20290;-88
2022/12/29 08:17:40;;;;;;;1.27;0.50;;;11.50;66.40;11.70;96165.00;;;;5058797;28;20569;-88
2022/12/29 08:20:11;;;;;;;0.50;0.50;;;11.50;66.30;11.70;96155.00;;;;5060070;28;20273;-88
2022/12/29 08:22:38;;;;;;;0.70;0.60;;;11.60;66.30;11.70;96149.00;;;;5065923;28;20263;-90
2022/12/29 08:25:08;;;;;;;0.50;0.50;;;11.60;66.40;11.70;96152.00;;;;5075734;28;20259;-88
2022/12/29 08:27:35;;;;;;;0.80;0.77;;;11.60;65.90;11.80;96152.00;;;;5057566;28;20735;-88
2022/12/29 08:30:02;;;;;;;1.27;0.70;;;11.60;65.70;11.80;96157.00;;;;5057399;28;20212;-90
2022/12/29 08:32:29;;;;;;;0.60;0.60;;;11.60;65.90;11.80;96162.00;;;;5055819;28;20205;-90
2022/12/29 08:34:57;;;;;;;0.70;0.70;;;11.60;66.10;11.90;96156.00;;;;5055734;28;20237;-90
2022/12/29 08:37:24;;;;;;;1.90;1.00;;;11.60;66.00;11.90;96151.00;;;;5059274;28;20287;-89
2022/12/29 08:39:51;;;;;;;0.67;0.67;;;11.70;66.50;12.00;96157.00;;;;5058304;28;20224;-89
2022/12/29 08:42:20;;;;;;;1.73;0.83;;;11.70;66.30;12.00;96159.00;;;;5057354;28;20290;-89
2022/12/29 08:44:47;;;;;;;1.30;1.20;;;11.70;65.80;12.00;96158.00;;;;5056183;28;20259;-89
2022/12/29 08:47:14;;;;;;;1.10;0.90;;;11.90;65.90;12.00;96164.00;;;;5058228;28;20295;-90
2022/12/29 08:49:41;;;;;;;2.30;1.30;;;11.80;65.70;12.10;96161.00;;;;5057681;28;20287;-89
2022/12/29 08:52:09;;;;;;;1.93;0.90;;;11.90;65.80;12.10;96167.00;;;;5058901;28;20659;-89
2022/12/29 08:54:36;;;;;;;3.87;1.00;;;11.80;65.80;12.10;96174.00;;;;5060168;28;20224;-90
2022/12/29 08:57:03;;;;;;;5.03;1.00;;;11.80;66.60;12.20;96172.00;;;;5062137;28;20214;-89
2022/12/29 08:59:32;;;;;;;0.80;0.80;;;11.90;66.00;12.20;96174.00;;;;5060548;28;20296;-90
2022/12/29 09:02:00;;;;;;;3.13;1.00;;;11.90;66.00;12.30;96166.00;;;;5062561;28;20248;-90
2022/12/29 09:04:27;;;;;;;1.67;1.20;;;12.00;66.20;12.30;96178.00;;;;5058534;28;20235;-90
2022/12/29 09:06:54;;;;;;;1.83;1.07;;;12.00;66.20;12.40;96171.00;;;;5061315;28;20550;-90
2022/12/29 09:09:22;;;;;;;1.80;1.27;;;12.00;66.40;12.50;96171.00;;;;5054998;28;20252;-89
2022/12/29 09:11:49;;;;;;;1.20;1.10;;;12.10;66.60;12.50;96175.00;;;;5060856;28;20308;-89
2022/12/29 09:14:16;;;;;;;2.33;0.80;;;12.10;66.40;12.60;96176.00;;;;5059389;28;20252;-90
2022/12/29 09:19:29;;;;;;;0.80;0.73;;;12.20;66.20;12.70;96185.00;;;;5058691;28;20274;-89
2022/12/29 09:21:56;;;;;;;1.50;0.60;;;12.30;66.60;12.80;96183.00;;;;5060447;28;20622;-90
2022/12/29 09:24:24;;;;;;;0.70;0.60;;;12.40;66.60;12.90;96190.00;;;;5059494;28;20220;-91
2022/12/29 09:26:51;;;;;;;0.60;0.60;;;12.50;66.70;13.00;96180.00;;;;5057400;28;20632;-91
2022/12/29 09:29:18;;;;;;;1.17;0.87;;;12.60;66.40;13.10;96190.00;;;;5060141;28;20203;-91
2022/12/29 09:31:46;;;;;;;1.47;0.90;;;12.70;66.70;13.20;96183.00;;;;5059985;28;20955;-90
2022/12/29 09:34:13;;;;;;;0.80;0.57;;;12.70;67.00;13.30;96179.00;;;;5060987;28;20576;-90
2022/12/29 09:36:41;;;;;;;3.93;0.60;;;12.90;67.00;13.50;96172.00;;;;5061496;28;20277;-90
2022/12/29 09:39:08;;;;;;;1.00;0.80;;;13.00;67.40;13.70;96180.00;;;;5060982;28;20200;-91
2022/12/29 09:41:44;;;;;;;1.67;0.70;;;13.10;67.20;13.90;96166.00;;;;5062453;28;20289;-91
2022/12/29 09:44:24;;;;;;;0.80;0.80;;;13.30;66.60;14.10;96180.00;;;;5061841;28;20299;-91
2022/12/29 09:46:56;;;;;;;0.70;0.60;;;13.50;66.20;14.30;96176.00;;;;5061127;28;20214;-90
2022/12/29 09:49:32;;;;;;;0.60;0.57;;;13.70;67.00;14.50;96188.00;;;;5062742;28;20704;-91
2022/12/29 09:52:06;;;;;;;1.00;0.50;;;13.80;66.70;14.60;96181.00;;;;5062921;28;20196;-90
2022/12/29 09:54:46;;;;;;;1.20;0.70;;;14.00;65.70;14.70;96178.00;;;;5057566;28;20223;-91
2022/12/29 09:57:24;;;;;;;0.40;0.40;;;14.20;64.80;14.80;96175.00;;;;5061788;28;20779;-90
2022/12/29 09:59:58;;;;;;;1.63;0.60;;;14.30;64.80;14.90;96187.00;;;;5062502;28;20274;-90
2022/12/29 10:02:40;;;;;;;0.80;0.80;;;14.40;64.90;15.00;96185.00;;;;5059217;28;20203;-90
2022/12/29 10:05:30;;;;;;;1.40;0.70;;;14.50;63.10;15.10;96192.00;;;;5056797;28;20331;-89
2022/12/29 10:08:14;;;;;;;2.00;0.87;;;14.60;63.40;15.20;96187.00;;;;5056942;28;20213;-90
2022/12/29 10:10:54;;;;;;;1.33;0.60;;;14.70;63.60;15.30;96187.00;;;;5058156;28;20197;-90
2022/12/29 10:13:35;;;;;;;0.93;0.70;;;14.80;64.00;15.30;96182.00;;;;5056728;28;20223;-90
2022/12/29 10:16:12;;;;;;;0.87;0.70;;;14.90;64.10;15.40;96186.00;;;;5058719;28;20303;-90
2022/12/29 10:19:16;;;;;;;1.27;0.70;;;15.00;63.90;15.50;96187.00;;;;5058055;28;20652;-89
2022/12/29 10:22:04;;;;;;;0.57;0.57;;;15.10;63.30;15.70;96179.00;;;;5057019;28;20652;-88
2022/12/29 10:24:35;;;;;;;1.23;0.53;;;15.20;63.00;15.80;96176.00;;;;5057167;28;20315;-89
2022/12/29 10:27:04;;;;;;;1.33;0.80;;;15.30;63.90;15.90;96178.00;;;;5056046;28;20292;-89
2022/12/29 10:29:40;;;;;;;2.37;0.60;;;15.40;64.10;15.90;96171.00;;;;5056859;28;20208;-91
2022/12/29 10:32:22;;;;;;;1.70;0.50;;;15.50;64.00;16.00;96172.00;;;;5059923;28;21008;-90
2022/12/29 10:34:58;;;;;;;1.67;0.87;;;15.50;63.30;16.10;96180.00;;;;5057133;28;20286;-89
2022/12/29 10:37:46;;;;;;;0.50;0.50;;;15.60;63.10;16.10;96176.00;;;;5057052;28;20287;-89
2022/12/29 10:40:25;;;;;;;0.93;0.57;;;15.60;61.90;16.10;96163.00;;;;5055543;28;20232;-89
2022/12/29 10:42:56;;;;;;;1.10;0.53;;;15.70;62.70;16.20;96168.00;;;;5051825;28;20285;-89
2022/12/29 10:45:29;;;;;;;0.90;0.63;;;15.70;62.80;16.20;96170.00;;;;5057175;28;20622;-89
2022/12/29 10:48:04;;;;;;;1.80;0.50;;;15.80;61.80;16.20;96167.00;;;;5058071;28;20287;-89
2022/12/29 10:50:33;;;;;;;0.60;0.57;;;15.80;61.20;16.20;96160.00;;;;5057692;28;20196;-89
2022/12/29 10:53:06;;;;;;;0.63;0.40;;;15.80;61.20;16.20;96156.00;;;;5056540;28;20216;-89
2022/12/29 10:55:37;;;;;;;0.93;0.60;;;15.90;60.70;16.20;96148.00;;;;5057108;28;20261;-90
2022/12/29 10:58:07;;;;;;;0.63;0.60;;;15.80;60.30;16.20;96145.00;;;;5055814;28;20236;-89
2022/12/29 11:00:35;;;;;;;1.77;0.90;;;15.90;59.90;16.20;96136.00;;;;5057742;28;20305;-90
2022/12/29 11:03:44;;;;;;;0.53;0.40;;;15.90;60.00;16.30;96148.00;;;;5057452;28;20247;-89
2022/12/29 11:06:22;;;;;;;0.30;0.30;;;16.00;58.20;16.30;96153.00;;;;5046568;28;20216;-89
2022/12/29 11:08:57;;;;;;;4.23;0.83;;;16.00;59.80;16.30;96141.00;;;;5054220;28;20286;-89
2022/12/29 11:11:29;;;;;;;0.60;0.30;;;16.00;59.40;16.30;96135.00;;;;5055292;28;20199;-88
2022/12/29 11:14:11;;;;;;;0.50;0.50;;;16.00;59.50;16.30;96132.00;;;;5055120;28;20254;-89
2022/12/29 11:16:38;;;;;;;1.17;0.50;;;16.00;59.00;16.40;96131.00;;;;5052730;28;20211;-89
2022/12/29 11:19:05;;;;;;;2.40;0.67;;;16.10;59.40;16.40;96128.00;;;;5055142;28;20680;-89
2022/12/29 11:21:40;;;;;;;0.60;0.50;;;16.10;59.10;16.40;96138.00;;;;5055024;28;20207;-90
2022/12/29 11:24:22;;;;;;;0.80;0.60;;;16.10;58.50;16.40;96131.00;;;;5054714;28;20216;-89
2022/12/29 11:26:57;;;;;;;0.60;0.50;;;16.10;57.50;16.50;96132.00;;;;5055796;28;20335;-89
2022/12/29 11:29:30;;;;;;;0.40;0.40;;;16.20;58.50;16.50;96136.00;;;;5054416;28;20286;-88
2022/12/29 11:32:00;;;;;;;4.20;0.70;;;16.20;57.90;16.50;96135.00;;;;5055502;28;20207;-90
2022/12/29 11:34:32;;;;;;;0.60;0.60;;;16.20;58.80;16.60;96142.00;;;;5053171;28;20298;-89
2022/12/29 11:37:06;;;;;;;1.00;0.60;;;16.30;58.70;16.60;96136.00;;;;5056376;28;20295;-89
2022/12/29 11:39:41;;;;;;;1.43;0.60;;;16.30;58.30;16.60;96129.00;;;;5056408;28;20204;-89
2022/12/29 11:42:17;;;;;;;1.07;0.90;;;16.30;58.50;16.60;96129.00;;;;5057272;28;20290;-90
2022/12/29 11:44:48;;;;;;;1.00;0.57;;;16.30;58.10;16.60;96129.00;;;;5056516;28;20250;-89
2022/12/29 11:47:29;;;;;;;0.80;0.80;;;16.30;58.40;16.70;96130.00;;;;5056538;28;20227;-89
2022/12/29 11:50:00;;;;;;;0.97;0.80;;;16.30;57.40;16.70;96135.00;;;;5055956;28;20292;-90
2022/12/29 11:52:35;;;;;;;0.50;0.50;;;16.30;58.00;16.70;96127.00;;;;5055922;28;20231;-89
2022/12/29 11:55:06;;;;;;;1.60;0.60;;;16.40;58.00;16.70;96127.00;;;;5054488;28;20242;-89